Otto, Arkansas
Current Conditions -  °F | °C
As of 6:58 AM on Friday 24 Oct 2014 (Local Time) from KLRF Reporting Station
Clear Clear  
Wind Chill: 44°   Ceiling: Unl
Heat Index: 44°   Visibility: 10mi
Dew Point: 42°   Wind: 2mph
Humidity: 94%   Direction: 260°W
Pressure: 30.15"   Gusts: NA
Location:  35.0719°N, 92.1713°W
Report Text: KLRF 241158Z AUTO 26002KT 10SM CLR 06/06 A3015 RMK AO2 SLP213 T00640055 10089 20064 53001
Loading
Personal Weather Stations






























Interactive Weather Map
Tropical Storm Tracking
New forecast layout! Learn more

10-Day Weather Forecast

Advertisements
Track Severe Weather on mobile